Aviation Digital Data Service (ADDS)

Output produced by METARs form (0039 UTC 23 March 2019)
found at http://www.aviationweather.gov/metar/data/
 
Forecast for: SCFA (ANTOFAGASTA/CERR, CL)
Text: TAF SCFA 222216Z 2300/2324 19008KT CAVOK TN16/2306Z TX21/2316Z
Forecast period: 0000 to 0600 UTC 23 March 2019
Forecast type: FROM: standard forecast or significant change
Winds: from the S (190 degrees) at 9 MPH (8 knots; 4.1 m/s)
Visibility: 6 or more miles 10+ km)
Ceiling: unknown
Clouds: missing
Weather: no significant weather forecast for this period
Text: BECMG 2306/2308 09004KT
Forecast period: 0600 to 1400 UTC 23 March 2019
Forecast type: BECOMING: Conditions expected to become as follows by 0800 UTC 23 March 2019
Winds: from the E (90 degrees) at 5 MPH (4 knots; 2.1 m/s)
Visibility: 6 or more miles 10+ km)
Ceiling: unknown
Clouds: missing
Weather: no significant weather forecast for this period
Text: BECMG 2314/2316 20012KT FEW020
Forecast period: 1400 UTC 23 March 2019 to 0000 UTC 24 March 2019
Forecast type: BECOMING: Conditions expected to become as follows by 1600 UTC 23 March 2019
Winds: from the SSW (200 degrees) at 14 MPH (12 knots; 6.2 m/s)
Visibility: 6 or more miles 10+ km)
Ceiling: at least 12,000 feet AGL
Clouds: few clouds at 2000 feet AGL
Weather: no significant weather forecast for this period